Time;durP1;ratioP1;P1;durP2;ratioP2;P2;SDS_P1;SDS_P2;PMS_P1;PMS_P2;Temp;Humidity;BMP_temperature;BMP_pressure;BME280_temperature;BME280_humidity;BME280_pressure;Samples;Min_cycle;Max_cycle;Signal;HPM_P1;HPM_P2
2022/09/11 00:00:02;;;;;;;;;;;13.90;99.90;;;;;;5150015;27;19995;-94
2022/09/11 00:02:30;;;;;;;;;;;13.50;99.90;;;;;;5150124;27;19923;-95
2022/09/11 00:04:58;;;;;;;;;;;14.00;99.90;;;;;;5146668;27;19927;-96
2022/09/11 00:07:25;;;;;;;;;;;13.00;99.90;;;;;;5169586;27;19923;-93
2022/09/11 00:09:51;;;;;;;;;;;13.40;99.90;;;;;;5121356;27;19927;-93
2022/09/11 00:12:16;;;;;;;;;;;11.80;99.90;;;;;;5140172;27;19931;-93
2022/09/11 00:14:45;;;;;;;;;;;13.40;99.90;;;;;;5114218;27;19954;-91
2022/09/11 00:17:11;;;;;;;;;;;12.30;99.90;;;;;;5144109;27;19931;-94
2022/09/11 00:19:38;;;;;;;;;;;12.50;99.90;;;;;;5131538;27;19923;-95
2022/09/11 00:22:04;;;;;;;;;;;13.40;99.90;;;;;;5127128;27;20337;-95
2022/09/11 00:24:30;;;;;;;;;;;13.60;99.90;;;;;;5127000;27;19974;-93
2022/09/11 00:26:56;;;;;;;;;;;12.30;99.90;;;;;;5108770;27;19970;-94
2022/09/11 00:29:21;;;;;;;;;;;13.30;99.90;;;;;;5107947;27;19980;-95
2022/09/11 00:31:48;;;;;;;;;;;13.30;99.90;;;;;;5108583;27;19923;-94
2022/09/11 00:34:13;;;;;;;;;;;13.30;99.90;;;;;;5127038;27;19962;-94
2022/09/11 00:36:40;;;;;;;;;;;13.30;99.90;;;;;;5128100;27;19976;-93
2022/09/11 00:39:06;;;;;;;;;;;13.40;99.90;;;;;;5151842;27;19923;-94
2022/09/11 00:41:34;;;;;;;;;;;13.50;99.90;;;;;;5121063;27;19953;-92
2022/09/11 00:44:08;;;;;;;;;;;13.30;99.90;;;;;;5130993;27;19926;-93
2022/09/11 00:46:43;;;;;;;;;;;13.30;99.90;;;;;;5140291;27;19930;-95
2022/09/11 00:49:24;;;;;;;;;;;13.40;99.90;;;;;;5134606;27;19923;-93
2022/09/11 00:51:54;;;;;;;;;;;13.30;99.90;;;;;;5127690;27;19929;-94
2022/09/11 00:54:24;;;;;;;;;;;13.90;99.90;;;;;;5142460;27;19923;-95
2022/09/11 00:56:50;;;;;;;;;;;13.20;99.90;;;;;;5126057;27;20367;-94
2022/09/11 00:59:17;;;;;;;;;;;13.20;99.90;;;;;;5112779;27;19930;-96
2022/09/11 01:01:46;;;;;;;;;;;13.20;99.90;;;;;;5143780;27;20401;-94
2022/09/11 01:04:12;;;;;;;;;;;13.40;99.90;;;;;;5163453;27;19970;-96
2022/09/11 01:06:39;;;;;;;;;;;14.50;99.90;;;;;;5124036;27;19930;-96
2022/09/11 01:09:04;;;;;;;;;;;13.20;99.90;;;;;;5126712;27;19923;-96
2022/09/11 01:11:34;;;;;;;;;;;14.80;99.90;;;;;;5128659;27;20075;-94
2022/09/11 01:14:01;;;;;;;;;;;13.40;99.90;;;;;;5107589;27;19929;-95
2022/09/11 01:16:29;;;;;;;;;;;13.40;99.90;;;;;;5142654;27;20422;-94
2022/09/11 01:18:59;;;;;;;;;;;13.60;99.90;;;;;;5147089;27;20367;-94
2022/09/11 01:21:25;;;;;;;;;;;13.60;99.90;;;;;;5127180;27;19945;-94
2022/09/11 01:24:10;;;;;;;;;;;13.60;99.90;;;;;;5134175;27;19927;-95
2022/09/11 01:26:44;;;;;;;;;;;13.90;99.90;;;;;;5155299;27;19907;-94
2022/09/11 01:29:16;;;;;;;;;;;13.60;99.90;;;;;;5134881;27;19923;-95
2022/09/11 01:31:55;;;;;;;;;;;13.70;99.90;;;;;;5135172;27;19927;-95
2022/09/11 01:34:41;;;;;;;;;;;13.60;99.90;;;;;;5138042;27;19927;-92
2022/09/11 01:37:10;;;;;;;;;;;13.90;99.90;;;;;;5115363;27;19923;-95
2022/09/11 01:39:43;;;;;;;;;;;13.90;99.90;;;;;;5125350;27;19927;-95
2022/09/11 01:42:13;;;;;;;;;;;13.70;99.90;;;;;;5127433;27;19934;-94
2022/09/11 01:44:44;;;;;;;;;;;13.30;99.90;;;;;;5129906;27;19923;-95
2022/09/11 01:47:09;;;;;;;;;;;13.50;99.90;;;;;;5125042;27;20359;-96
2022/09/11 01:49:56;;;;;;;;;;;13.60;99.90;;;;;;5107177;27;19923;-93
2022/09/11 01:52:23;;;;;;;;;;;13.70;99.90;;;;;;5246672;22;19967;-95
2022/09/11 01:54:55;;;;;;;;;;;13.30;99.90;;;;;;5002809;28;19976;-93
2022/09/11 01:57:40;;;;;;;;;;;14.00;99.90;;;;;;5017131;28;19987;-95
2022/09/11 02:00:07;;;;;;;;;;;13.60;99.90;;;;;;5017585;28;19970;-94
2022/09/11 02:02:37;;;;;;;;;;;13.60;99.90;;;;;;5035486;28;19972;-95
2022/09/11 02:05:05;;;;;;;;;;;13.50;99.90;;;;;;5020407;28;19968;-93
2022/09/11 02:07:38;;;;;;;;;;;13.40;99.90;;;;;;5020598;28;19932;-94
2022/09/11 02:10:08;;;;;;;;;;;13.50;99.90;;;;;;5023452;28;20392;-94
2022/09/11 02:12:45;;;;;;;;;;;13.50;99.90;;;;;;5022598;28;19932;-96
2022/09/11 02:15:10;;;;;;;;;;;13.40;99.90;;;;;;5020209;28;20040;-95
2022/09/11 02:17:51;;;;;;;;;;;13.40;99.90;;;;;;5024259;28;20387;-95
2022/09/11 02:20:19;;;;;;;;;;;13.40;99.90;;;;;;5026237;28;19947;-94
2022/09/11 02:22:45;;;;;;;;;;;13.90;99.90;;;;;;5029122;28;19933;-92
2022/09/11 02:25:12;;;;;;;;;;;13.40;99.90;;;;;;5031955;28;19933;-95
2022/09/11 02:27:38;;;;;;;;;;;13.30;99.90;;;;;;5049847;28;19925;-95
2022/09/11 02:30:03;;;;;;;;;;;13.30;99.90;;;;;;5046202;28;19932;-96
2022/09/11 02:32:29;;;;;;;;;;;13.30;99.90;;;;;;5042917;28;19952;-96
2022/09/11 02:34:55;;;;;;;;;;;13.30;99.90;;;;;;5029481;28;19929;-93
2022/09/11 02:37:24;;;;;;;;;;;13.30;99.90;;;;;;5010954;28;19990;-96
2022/09/11 02:40:09;;;;;;;;;;;13.20;99.90;;;;;;5020940;28;19948;-95
2022/09/11 02:42:54;;;;;;;;;;;13.20;99.90;;;;;;5035918;28;19929;-95
2022/09/11 02:45:40;;;;;;;;;;;13.20;99.90;;;;;;5038865;28;19999;-92
2022/09/11 02:48:05;;;;;;;;;;;13.20;99.90;;;;;;5038525;28;20386;-96
2022/09/11 02:50:31;;;;;;;;;;;13.10;99.90;;;;;;5025376;28;20160;-93
2022/09/11 02:53:26;;;;;;;;;;;13.10;99.90;;;;;;5046073;28;19929;-94
2022/09/11 02:55:52;;;;;;;;;;;13.00;99.90;;;;;;5009761;28;19992;-94
2022/09/11 02:58:25;;;;;;;;;;;13.00;99.90;;;;;;5026108;28;19936;-92
2022/09/11 03:00:52;;;;;;;;;;;12.90;99.90;;;;;;5034704;28;19929;-94
2022/09/11 03:03:19;;;;;;;;;;;12.90;99.90;;;;;;5024880;28;19952;-95
2022/09/11 03:05:45;;;;;;;;;;;12.80;99.90;;;;;;5022206;28;19929;-94
2022/09/11 03:08:10;;;;;;;;;;;12.80;99.90;;;;;;5041674;28;19959;-92
2022/09/11 03:10:37;;;;;;;;;;;12.70;99.90;;;;;;5022314;28;19913;-92
2022/09/11 03:13:05;;;;;;;;;;;12.70;99.90;;;;;;5155434;22;20695;-94
2022/09/11 03:15:42;;;;;;;;;;;12.90;99.90;;;;;;5059628;28;19908;-94
2022/09/11 03:18:17;;;;;;;;;;;12.20;99.90;;;;;;5076689;28;19923;-94
2022/09/11 03:20:48;;;;;;;;;;;11.90;99.90;;;;;;5068224;28;19928;-94
2022/09/11 03:23:14;;;;;;;;;;;12.80;99.90;;;;;;5064361;28;19946;-95
2022/09/11 03:25:40;;;;;;;;;;;12.60;99.90;;;;;;5062312;28;20352;-95
2022/09/11 03:28:08;;;;;;;;;;;12.70;99.90;;;;;;5045590;28;19928;-94
2022/09/11 03:30:34;;;;;;;;;;;12.90;99.90;;;;;;5059255;28;19924;-96
2022/09/11 03:33:00;;;;;;;;;;;12.60;99.90;;;;;;5043965;28;19924;-95
2022/09/11 03:35:26;;;;;;;;;;;12.60;99.90;;;;;;5076974;28;20012;-94
2022/09/11 03:37:54;;;;;;;;;;;12.70;99.90;;;;;;5075353;28;20022;-94
2022/09/11 03:40:20;;;;;;;;;;;12.70;99.90;;;;;;5059843;28;19964;-95
2022/09/11 03:42:45;;;;;;;;;;;12.70;99.90;;;;;;5085733;28;19991;-94
2022/09/11 03:45:13;;;;;;;;;;;12.70;99.90;;;;;;5093423;28;19999;-95
2022/09/11 03:47:39;;;;;;;;;;;12.60;99.90;;;;;;5082418;28;19963;-95
2022/09/11 03:50:05;;;;;;;;;;;12.60;99.90;;;;;;5088142;28;19936;-94
2022/09/11 03:52:31;;;;;;;;;;;12.50;99.90;;;;;;5073815;28;19964;-94
2022/09/11 03:54:57;;;;;;;;;;;12.50;99.90;;;;;;5060014;28;20414;-94
2022/09/11 03:57:22;;;;;;;;;;;12.60;99.90;;;;;;5043188;28;19978;-94
2022/09/11 03:59:48;;;;;;;;;;;12.50;99.90;;;;;;5061393;28;19933;-94
2022/09/11 04:02:14;;;;;;;;;;;12.60;99.90;;;;;;5059250;28;19924;-92
2022/09/11 04:04:40;;;;;;;;;;;12.60;99.90;;;;;;5075139;28;19929;-92
2022/09/11 04:07:05;;;;;;;;;;;12.60;99.90;;;;;;5076348;28;19967;-94
2022/09/11 04:09:31;;;;;;;;;;;12.60;99.90;;;;;;5043530;28;19971;-93
2022/09/11 04:11:57;;;;;;;;;;;12.50;99.90;;;;;;5059327;28;20011;-94
2022/09/11 04:14:22;;;;;;;;;;;12.60;99.90;;;;;;5057698;28;19932;-93
2022/09/11 04:16:48;;;;;;;;;;;13.30;99.90;;;;;;5077163;28;20308;-93
2022/09/11 04:19:13;;;;;;;;;;;12.60;99.90;;;;;;5062268;28;19968;-95
2022/09/11 04:21:39;;;;;;;;;;;12.60;99.90;;;;;;5080761;28;19924;-93
2022/09/11 04:24:05;;;;;;;;;;;12.70;99.90;;;;;;5067259;28;19924;-91
2022/09/11 04:26:31;;;;;;;;;;;12.70;99.90;;;;;;5063843;28;19932;-94
2022/09/11 04:28:57;;;;;;;;;;;12.70;99.90;;;;;;5064073;28;19958;-93
2022/09/11 04:31:23;;;;;;;;;;;12.60;99.90;;;;;;5064484;28;19951;-95
2022/09/11 04:33:50;;;;;;;;;;;12.60;99.90;;;;;;5046539;28;19932;-94
2022/09/11 04:36:16;;;;;;;;;;;12.60;99.90;;;;;;5062605;28;19974;-94
2022/09/11 04:38:42;;;;;;;;;;;12.60;99.90;;;;;;5090998;28;19996;-94
2022/09/11 04:41:08;;;;;;;;;;;12.60;99.90;;;;;;5057706;28;19928;-95
2022/09/11 04:43:34;;;;;;;;;;;12.50;99.90;;;;;;5091549;28;19990;-94
2022/09/11 04:46:01;;;;;;;;;;;12.50;99.90;;;;;;5084056;28;19932;-95
2022/09/11 04:48:26;;;;;;;;;;;11.40;99.90;;;;;;5089393;28;19990;-90
2022/09/11 04:51:02;;;;;;;;;;;12.50;99.90;;;;;;5071882;28;19925;-96
2022/09/11 04:53:28;;;;;;;;;;;12.60;99.90;;;;;;5054128;28;19929;-94
2022/09/11 04:56:09;;;;;;;;;;;12.60;99.90;;;;;;5053898;28;19925;-95
2022/09/11 04:58:37;;;;;;;;;;;12.60;99.90;;;;;;5084942;28;20393;-96
2022/09/11 05:01:07;;;;;;;;;;;12.60;99.90;;;;;;5086200;28;20015;-95
2022/09/11 05:03:32;;;;;;;;;;;12.60;99.90;;;;;;5086978;28;19913;-95
2022/09/11 05:05:59;;;;;;;;;;;12.60;99.90;;;;;;5066976;28;19950;-95
2022/09/11 05:08:31;;;;;;;;;;;12.60;99.90;;;;;;5067684;28;19931;-96
2022/09/11 05:10:58;;;;;;;;;;;12.60;99.90;;;;;;5071361;28;19928;-94
2022/09/11 05:13:27;;;;;;;;;;;13.30;99.90;;;;;;5064042;28;19931;-95
2022/09/11 05:16:08;;;;;;;;;;;12.60;99.90;;;;;;5069602;28;19928;-95
2022/09/11 05:18:41;;;;;;;;;;;12.90;99.90;;;;;;5093827;28;19916;-95
2022/09/11 05:21:11;;;;;;;;;;;12.70;99.90;;;;;;5084177;28;19928;-95
2022/09/11 05:23:45;;;;;;;;;;;12.40;99.90;;;;;;5087612;28;19924;-92
2022/09/11 05:26:15;;;;;;;;;;;12.90;99.90;;;;;;5063059;28;19909;-95
2022/09/11 05:28:44;;;;;;;;;;;12.80;99.90;;;;;;5077600;28;19935;-94
2022/09/11 05:31:14;;;;;;;;;;;14.00;99.90;;;;;;5078816;28;19931;-92
2022/09/11 05:33:40;;;;;;;;;;;12.90;99.90;;;;;;5078303;28;19935;-93
2022/09/11 05:36:06;;;;;;;;;;;13.00;99.90;;;;;;5080234;28;19916;-93
2022/09/11 05:38:33;;;;;;;;;;;12.80;99.90;;;;;;5064516;28;19912;-93
2022/09/11 05:41:01;;;;;;;;;;;13.50;99.90;;;;;;5081011;28;19980;-92
2022/09/11 05:43:27;;;;;;;;;;;13.50;99.90;;;;;;5064860;28;19968;-93
2022/09/11 05:45:56;;;;;;;;;;;14.70;99.90;;;;;;5080821;28;19912;-92
2022/09/11 05:48:24;;;;;;;;;;;14.20;99.90;;;;;;5062188;28;19938;-93
2022/09/11 05:50:58;;;;;;;;;;;14.40;99.90;;;;;;5059906;28;19932;-96
2022/09/11 05:53:27;;;;;;;;;;;13.10;99.90;;;;;;5061087;28;19924;-92
2022/09/11 05:55:53;;;;;;;;;;;15.20;99.90;;;;;;5092177;28;19946;-94
2022/09/11 05:58:22;;;;;;;;;;;15.60;99.90;;;;;;5080933;28;19948;-92
2022/09/11 06:00:51;;;;;;;;;;;15.80;99.90;;;;;;5097276;28;19909;-92
2022/09/11 06:03:18;;;;;;;;;;;16.20;99.90;;;;;;5064450;28;19912;-92
2022/09/11 06:05:44;;;;;;;;;;;16.40;99.90;;;;;;5064172;28;19984;-94
2022/09/11 06:08:12;;;;;;;;;;;16.40;99.90;;;;;;5070832;28;19928;-94
2022/09/11 06:10:52;;;;;;;;;;;16.70;99.90;;;;;;5067967;28;19935;-94
2022/09/11 06:13:18;;;;;;;;;;;16.60;99.90;;;;;;5066504;28;19975;-95
2022/09/11 06:15:58;;;;;;;;;;;;;;;;;;;;;
2022/09/11 06:18:32;;;;;;;;;;;17.70;99.90;;;;;;5068706;28;20011;-95
2022/09/11 06:21:01;;;;;;;;;;;16.60;99.90;;;;;;5069583;28;20403;-96
2022/09/11 06:23:27;;;;;;;;;;;17.60;99.90;;;;;;5063962;28;19983;-93
2022/09/11 06:25:53;;;;;;;;;;;17.70;99.90;;;;;;5081016;28;19928;-94
2022/09/11 06:28:25;;;;;;;;;;;17.80;99.90;;;;;;5049972;28;19934;-95
2022/09/11 06:30:51;;;;;;;;;;;19.20;99.90;;;;;;5067983;28;19935;-95
2022/09/11 06:33:19;;;;;;;;;;;17.60;99.90;;;;;;5084168;28;20330;-96
2022/09/11 06:35:57;;;;;;;;;;;18.40;99.90;;;;;;5083816;28;19932;-95
2022/09/11 06:38:28;;;;;;;;;;;17.40;99.90;;;;;;5073792;28;19940;-93
2022/09/11 06:40:58;;;;;;;;;;;18.20;99.90;;;;;;5080424;28;19943;-92
2022/09/11 06:43:26;;;;;;;;;;;18.50;99.90;;;;;;5096309;28;19935;-93
2022/09/11 06:46:02;;;;;;;;;;;18.70;99.90;;;;;;5080444;28;19915;-91
2022/09/11 06:48:33;;;;;;;;;;;19.60;99.90;;;;;;5080346;28;19919;-93
2022/09/11 06:51:04;;;;;;;;;;;20.40;99.90;;;;;;5078372;28;19935;-92
2022/09/11 06:53:32;;;;;;;;;;;20.10;99.90;;;;;;5093764;28;19986;-94
2022/09/11 06:56:11;;;;;;;;;;;20.60;99.90;;;;;;5077885;28;19983;-94
2022/09/11 06:58:40;;;;;;;;;;;20.60;99.90;;;;;;5054577;28;19935;-95
2022/09/11 07:01:09;;;;;;;;;;;20.10;99.90;;;;;;5051254;28;19931;-95
2022/09/11 07:03:48;;;;;;;;;;;;;;;;;;;;;
2022/09/11 07:06:30;;;;;;;;;;;;;;;;;;;;;
2022/09/11 07:09:02;;;;;;;;;;;21.80;99.90;;;;;;5073329;28;19931;-94
2022/09/11 07:11:33;;;;;;;;;;;21.60;99.90;;;;;;5059209;28;19909;-96
2022/09/11 07:14:00;;;;;;;;;;;22.10;99.90;;;;;;5081953;28;19928;-96
2022/09/11 07:16:29;;;;;;;;;;;23.70;99.90;;;;;;5071543;28;19936;-96
2022/09/11 07:19:03;;;;;;;;;;;23.10;99.90;;;;;;5069643;28;19925;-96
2022/09/11 07:21:34;;;;;;;;;;;23.50;99.90;;;;;;5068111;28;19951;-96
2022/09/11 07:24:03;;;;;;;;;;;23.20;99.90;;;;;;5065642;28;19925;-95
2022/09/11 07:26:29;;;;;;;;;;;23.30;99.90;;;;;;5068020;28;19950;-96
2022/09/11 07:28:57;;;;;;;;;;;24.00;99.90;;;;;;5069092;28;19925;-96
2022/09/11 07:31:28;;;;;;;;;;;23.60;99.90;;;;;;5066786;28;19956;-95
2022/09/11 07:33:55;;;;;;;;;;;23.50;99.90;;;;;;5065583;28;19928;-96
2022/09/11 07:36:25;;;;;;;;;;;23.60;99.90;;;;;;5061889;28;19951;-95
2022/09/11 07:38:53;;;;;;;;;;;24.10;99.90;;;;;;5075796;28;19928;-94
2022/09/11 07:41:20;;;;;;;;;;;23.70;99.90;;;;;;5058946;28;19959;-94
2022/09/11 07:43:47;;;;;;;;;;;24.20;99.90;;;;;;5060510;28;19964;-93
2022/09/11 07:46:20;;;;;;;;;;;25.00;99.90;;;;;;5045038;28;19946;-95
2022/09/11 07:49:11;;;;;;;;;;;24.30;99.90;;;;;;5061951;28;19928;-96
2022/09/11 07:51:49;;;;;;;;;;;;;;;;;;;;;
2022/09/11 07:54:27;;;;;;;;;;;;;;;;;;;;;
2022/09/11 07:56:55;;;;;;;;;;;24.70;99.90;;;;;;5053963;28;19964;-94
2022/09/11 07:59:30;;;;;;;;;;;25.50;99.90;;;;;;5041310;28;20019;-95
2022/09/11 08:01:59;;;;;;;;;;;25.30;99.90;;;;;;5044865;28;19931;-94
2022/09/11 08:04:32;;;;;;;;;;;26.50;99.90;;;;;;5059690;28;20346;-96
2022/09/11 08:07:05;;;;;;;;;;;26.00;99.90;;;;;;5043921;28;19982;-96
2022/09/11 08:09:40;;;;;;;;;;;25.70;99.90;;;;;;5047023;28;19968;-95
2022/09/11 08:12:09;;;;;;;;;;;25.60;99.90;;;;;;5064925;28;19947;-96
2022/09/11 08:14:37;;;;;;;;;;;24.90;99.90;;;;;;5046639;28;19931;-95
2022/09/11 08:17:06;;;;;;;;;;;24.70;99.90;;;;;;5041585;28;20352;-96
2022/09/11 08:19:36;;;;;;;;;;;26.10;99.90;;;;;;5060792;28;20380;-94
2022/09/11 08:22:02;;;;;;;;;;;26.10;99.90;;;;;;5053955;28;19924;-94
2022/09/11 08:24:30;;;;;;;;;;;25.30;99.90;;;;;;5041510;28;20391;-96
2022/09/11 08:26:58;;;;;;;;;;;25.20;99.90;;;;;;5042524;28;19939;-95
2022/09/11 08:29:28;;;;;;;;;;;25.10;99.90;;;;;;5049281;28;19963;-94
2022/09/11 08:32:07;;;;;;;;;;;25.30;99.90;;;;;;5068841;28;19989;-92
2022/09/11 08:34:39;;;;;;;;;;;26.00;99.90;;;;;;5048482;28;19947;-96
2022/09/11 08:37:19;;;;;;;;;;;;;;;;;;;;;
2022/09/11 08:39:56;;;;;;;;;;;25.70;99.90;;;;;;5061795;28;19978;-94
2022/09/11 08:42:24;;;;;;;;;;;25.20;99.90;;;;;;5046375;28;19938;-94
2022/09/11 08:44:52;;;;;;;;;;;25.60;99.90;;;;;;5065112;28;19924;-94
2022/09/11 08:47:21;;;;;;;;;;;25.90;99.90;;;;;;5064937;28;20189;-93
2022/09/11 08:49:52;;;;;;;;;;;26.10;99.90;;;;;;5062255;28;19975;-93
2022/09/11 08:52:18;;;;;;;;;;;26.60;99.90;;;;;;5044374;28;20251;-92
2022/09/11 08:54:44;;;;;;;;;;;25.50;99.90;;;;;;5043289;28;19935;-93
2022/09/11 08:57:10;;;;;;;;;;;25.60;99.90;;;;;;5073927;28;19932;-95
2022/09/11 08:59:37;;;;;;;;;;;26.60;99.90;;;;;;5058645;28;19929;-95
2022/09/11 09:02:05;;;;;;;;;;;27.10;99.90;;;;;;5057922;28;20369;-95
2022/09/11 09:04:31;;;;;;;;;;;27.30;99.90;;;;;;5056786;28;20364;-96
2022/09/11 09:07:00;;;;;;;;;;;26.60;99.90;;;;;;5057117;28;19925;-93
2022/09/11 09:09:30;;;;;;;;;;;26.60;99.90;;;;;;5060710;28;19925;-94
2022/09/11 09:11:56;;;;;;;;;;;27.70;99.90;;;;;;5026828;28;19936;-95
2022/09/11 09:14:28;;;;;;;;;;;27.40;99.90;;;;;;5040756;28;20376;-96
2022/09/11 09:16:59;;;;;;;;;;;26.50;99.90;;;;;;5057378;28;19971;-94
2022/09/11 09:19:30;;;;;;;;;;;25.70;99.90;;;;;;5042061;28;19947;-95
2022/09/11 09:22:04;;;;;;;;;;;24.50;99.90;;;;;;5041257;28;20429;-95
2022/09/11 09:24:33;;;;;;;;;;;23.20;99.90;;;;;;5041487;28;19929;-95
2022/09/11 09:27:00;;;;;;;;;;;23.90;99.90;;;;;;5058664;28;19952;-96
2022/09/11 09:29:27;;;;;;;;;;;24.40;99.90;;;;;;5027457;28;19925;-95
2022/09/11 09:31:58;;;;;;;;;;;25.30;99.90;;;;;;5056489;28;20308;-93
2022/09/11 09:34:26;;;;;;;;;;;25.10;99.90;;;;;;5041078;28;20285;-95
2022/09/11 09:37:04;;;;;;;;;;;26.50;99.90;;;;;;5040482;28;19932;-94
2022/09/11 09:39:29;;;;;;;;;;;27.80;99.90;;;;;;5057919;28;19924;-96
2022/09/11 09:42:18;;;;;;;;;;;27.70;99.90;;;;;;5028069;28;20416;-93
2022/09/11 09:45:10;;;;;;;;;;;27.70;99.10;;;;;;5029293;28;20016;-93
2022/09/11 09:48:17;;;;;;;;;;;28.10;99.10;;;;;;5051899;28;19932;-90
2022/09/11 09:50:47;;;;;;;;;;;27.30;99.90;;;;;;5066064;28;19932;-93
2022/09/11 09:53:13;;;;;;;;;;;27.60;99.20;;;;;;5061426;28;19929;-94
2022/09/11 09:56:04;;;;;;;;;;;27.60;99.90;;;;;;5068346;28;19974;-95
2022/09/11 09:58:33;;;;;;;;;;;27.60;99.20;;;;;;5063307;28;19963;-91
2022/09/11 10:01:01;;;;;;;;;;;26.80;99.90;;;;;;5051417;28;19928;-94
2022/09/11 10:03:29;;;;;;;;;;;26.70;99.40;;;;;;5080401;28;19924;-95
2022/09/11 10:05:54;;;;;;;;;;;26.40;99.60;;;;;;5066824;28;19934;-93
2022/09/11 10:08:33;;;;;;;;;;;26.00;99.40;;;;;;5062297;28;19980;-86
2022/09/11 10:10:59;;;;;;;;;;;26.00;99.80;;;;;;5057398;28;19932;-92
2022/09/11 10:13:27;;;;;;;;;;;25.90;99.90;;;;;;5039487;28;19925;-91
2022/09/11 10:16:00;;;;;;;;;;;25.20;99.90;;;;;;5081705;28;20363;-91
2022/09/11 10:18:29;;;;;;;;;;;24.90;99.90;;;;;;5071575;28;19987;-92
2022/09/11 10:21:10;;;;;;;;;;;23.90;99.90;;;;;;5087702;28;19935;-92
2022/09/11 10:23:43;;;;;;;;;;;23.90;99.90;;;;;;5073725;28;19925;-90
2022/09/11 10:26:12;;;;;;;;;;;23.40;99.90;;;;;;5066387;28;19936;-91
2022/09/11 10:28:37;;;;;;;;;;;23.10;99.90;;;;;;5078283;28;19936;-92
2022/09/11 10:31:03;;;;;;;;;;;23.20;99.90;;;;;;5056543;28;19925;-93
2022/09/11 10:33:28;;;;;;;;;;;23.70;99.90;;;;;;5055622;28;20015;-92
2022/09/11 10:35:54;;;;;;;;;;;24.20;99.90;;;;;;5073694;28;19928;-91
2022/09/11 10:38:20;;;;;;;;;;;23.90;99.90;;;;;;5055999;28;20287;-91
2022/09/11 10:40:53;;;;;;;;;;;23.90;99.90;;;;;;5043748;28;19925;-92
2022/09/11 10:43:23;;;;;;;;;;;24.70;99.90;;;;;;5075985;28;19928;-92
2022/09/11 10:46:15;;;;;;;;;;;25.20;99.90;;;;;;5043517;28;19928;-91
2022/09/11 10:48:41;;;;;;;;;;;25.50;99.90;;;;;;5073968;28;19928;-91
2022/09/11 10:51:10;;;;;;;;;;;25.50;99.90;;;;;;5056597;28;19978;-91
2022/09/11 10:53:38;;;;;;;;;;;25.20;99.90;;;;;;5055932;28;19928;-91
2022/09/11 10:56:04;;;;;;;;;;;24.90;99.90;;;;;;5059789;28;19975;-94
2022/09/11 10:58:32;;;;;;;;;;;24.30;99.90;;;;;;5076107;28;19929;-92
2022/09/11 11:00:57;;;;;;;;;;;23.90;99.90;;;;;;5074332;28;19925;-93
2022/09/11 11:03:23;;;;;;;;;;;23.30;99.90;;;;;;5071899;28;19931;-93
2022/09/11 11:06:08;;;;;;;;;;;23.00;99.90;;;;;;5056790;28;20028;-90
2022/09/11 11:08:40;;;;;;;;;;;23.00;99.90;;;;;;5055282;28;19928;-92
2022/09/11 11:11:21;;;;;;;;;;;22.90;99.90;;;;;;5072620;28;19980;-92
2022/09/11 11:13:53;;;;;;;;;;;22.80;99.90;;;;;;5072090;28;19928;-91
2022/09/11 11:16:38;;;;;;;;;;;22.50;99.90;;;;;;5071614;28;20320;-91
2022/09/11 11:19:13;;;;;;;;;;;22.50;99.90;;;;;;5072363;28;20319;-91
2022/09/11 11:21:46;;;;;;;;;;;22.30;99.90;;;;;;5054671;28;20057;-92
2022/09/11 11:24:16;;;;;;;;;;;22.60;99.90;;;;;;5055034;28;19928;-89
2022/09/11 11:26:48;;;;;;;;;;;22.60;99.90;;;;;;5070724;28;19925;-91
2022/09/11 11:29:29;;;;;;;;;;;22.40;99.90;;;;;;5076523;28;19925;-91
2022/09/11 11:32:13;;;;;;;;;;;22.30;99.90;;;;;;5073297;28;19935;-90
2022/09/11 11:34:54;;;;;;;;;;;22.40;99.90;;;;;;5055486;28;19928;-91
2022/09/11 11:37:24;;;;;;;;;;;22.40;99.90;;;;;;5055579;28;20376;-93
2022/09/11 11:39:56;;;;;;;;;;;22.20;99.90;;;;;;5055075;28;19998;-92
2022/09/11 11:42:26;;;;;;;;;;;22.10;99.90;;;;;;5071613;28;20034;-90
2022/09/11 11:45:02;;;;;;;;;;;21.80;99.90;;;;;;5055558;28;19934;-92
2022/09/11 11:47:33;;;;;;;;;;;21.50;99.90;;;;;;5055388;28;20368;-92
2022/09/11 11:50:01;;;;;;;;;;;21.30;99.90;;;;;;5055284;28;19924;-91
2022/09/11 11:52:30;;;;;;;;;;;21.00;99.90;;;;;;5072639;28;19974;-93
2022/09/11 11:54:55;;;;;;;;;;;20.30;99.90;;;;;;5073016;28;19924;-92
2022/09/11 11:57:22;;;;;;;;;;;20.40;99.90;;;;;;5054978;28;19925;-93
2022/09/11 11:59:50;;;;;;;;;;;20.10;99.90;;;;;;5054538;28;20026;-90
2022/09/11 12:02:18;;;;;;;;;;;20.00;99.90;;;;;;5054321;28;20432;-91
2022/09/11 12:04:45;;;;;;;;;;;19.70;99.90;;;;;;5040838;28;19929;-92
2022/09/11 12:07:30;;;;;;;;;;;19.30;99.90;;;;;;5041564;28;20066;-91
2022/09/11 12:09:56;;;;;;;;;;;18.90;99.90;;;;;;5058077;28;19936;-91
2022/09/11 12:12:22;;;;;;;;;;;18.70;99.90;;;;;;5041204;28;19932;-91
2022/09/11 12:14:53;;;;;;;;;;;18.70;99.90;;;;;;5041421;28;19936;-94
2022/09/11 12:17:18;;;;;;;;;;;18.80;99.90;;;;;;5059039;28;20141;-93
2022/09/11 12:20:11;;;;;;;;;;;18.80;99.90;;;;;;5075080;28;19931;-93
2022/09/11 12:22:40;;;;;;;;;;;18.80;99.90;;;;;;5058119;28;19925;-93
2022/09/11 12:25:18;;;;;;;;;;;18.90;99.90;;;;;;5058740;28;20029;-93
2022/09/11 12:27:53;;;;;;;;;;;19.00;99.90;;;;;;5057489;28;19950;-93
2022/09/11 12:30:20;;;;;;;;;;;19.10;99.90;;;;;;5079597;28;19955;-91
2022/09/11 12:32:46;;;;;;;;;;;19.20;99.90;;;;;;5068179;28;20283;-93
2022/09/11 12:35:14;;;;;;;;;;;19.30;99.90;;;;;;5070621;28;19967;-91
2022/09/11 12:37:39;;;;;;;;;;;19.40;99.90;;;;;;5071465;28;19925;-92
2022/09/11 12:40:06;;;;;;;;;;;19.60;99.90;;;;;;5055788;28;19932;-92
2022/09/11 12:42:31;;;;;;;;;;;19.90;99.90;;;;;;5090218;28;19924;-91
2022/09/11 12:44:58;;;;;;;;;;;20.30;99.90;;;;;;5090562;28;19936;-95
2022/09/11 12:47:24;;;;;;;;;;;20.50;99.90;;;;;;5073039;28;19938;-93
2022/09/11 12:50:16;;;;;;;;;;;20.70;99.90;;;;;;5072542;28;19912;-93
2022/09/11 12:53:03;;;;;;;;;;;20.80;99.90;;;;;;5093107;28;19931;-91
2022/09/11 12:55:38;;;;;;;;;;;21.00;99.90;;;;;;5093478;28;20407;-90
2022/09/11 12:58:24;;;;;;;;;;;19.30;99.90;;;;;;5074515;28;19924;-93
2022/09/11 13:00:50;;;;;;;;;;;21.10;99.90;;;;;;5055977;28;20064;-93
2022/09/11 13:03:17;;;;;;;;;;;21.20;99.90;;;;;;5071496;28;19967;-94
2022/09/11 13:05:44;;;;;;;;;;;21.30;99.90;;;;;;5071054;28;19925;-94
2022/09/11 13:08:15;;;;;;;;;;;21.40;99.90;;;;;;5070829;28;19925;-92
2022/09/11 13:10:40;;;;;;;;;;;21.30;99.90;;;;;;5069698;28;19928;-91
2022/09/11 13:13:36;;;;;;;;;;;21.40;99.90;;;;;;5069263;28;19929;-92
2022/09/11 13:16:17;;;;;;;;;;;21.50;99.90;;;;;;5068221;28;19996;-93
2022/09/11 13:18:45;;;;;;;;;;;21.80;99.90;;;;;;5071296;28;19947;-93
2022/09/11 13:21:12;;;;;;;;;;;21.50;99.90;;;;;;5063458;28;19928;-96
2022/09/11 13:23:38;;;;;;;;;;;21.60;99.90;;;;;;5045311;28;19924;-94
2022/09/11 13:26:05;;;;;;;;;;;21.60;99.90;;;;;;5079338;28;19928;-94
2022/09/11 13:28:33;;;;;;;;;;;21.90;99.90;;;;;;5062338;28;20015;-93
2022/09/11 13:31:00;;;;;;;;;;;21.80;99.90;;;;;;5060715;28;20315;-92
2022/09/11 13:33:29;;;;;;;;;;;21.60;99.90;;;;;;5044138;28;19928;-91
2022/09/11 13:35:56;;;;;;;;;;;21.60;99.90;;;;;;5042077;28;19928;-92
2022/09/11 13:38:29;;;;;;;;;;;21.40;99.90;;;;;;5058722;28;20011;-92
2022/09/11 13:40:59;;;;;;;;;;;22.40;99.90;;;;;;5058632;28;20242;-92
2022/09/11 13:43:29;;;;;;;;;;;21.30;99.90;;;;;;5040958;28;19939;-93
2022/09/11 13:46:13;;;;;;;;;;;21.10;99.90;;;;;;5040542;28;20398;-92
2022/09/11 13:48:38;;;;;;;;;;;21.10;99.90;;;;;;5074719;28;19935;-93
2022/09/11 13:51:04;;;;;;;;;;;21.00;99.90;;;;;;5041546;28;19928;-94
2022/09/11 13:53:32;;;;;;;;;;;21.00;99.90;;;;;;5042449;28;19928;-93
2022/09/11 13:55:57;;;;;;;;;;;21.10;99.90;;;;;;5062521;28;20016;-92
2022/09/11 13:58:24;;;;;;;;;;;21.40;99.90;;;;;;5058419;28;19924;-92
2022/09/11 14:00:50;;;;;;;;;;;21.50;99.90;;;;;;5089857;28;19974;-92
2022/09/11 14:03:23;;;;;;;;;;;21.30;99.90;;;;;;5073350;28;19916;-92
2022/09/11 14:05:49;;;;;;;;;;;21.50;99.90;;;;;;5073911;28;19928;-93
2022/09/11 14:08:27;;;;;;;;;;;20.50;99.90;;;;;;5048981;28;19928;-91
2022/09/11 14:10:56;;;;;;;;;;;21.50;99.90;;;;;;5059598;28;19971;-93
2022/09/11 14:13:24;;;;;;;;;;;21.70;99.90;;;;;;5057619;28;19964;-93
2022/09/11 14:16:06;;;;;;;;;;;21.80;99.90;;;;;;5074702;28;20023;-92
2022/09/11 14:18:38;;;;;;;;;;;21.90;99.90;;;;;;5041910;28;20442;-93
2022/09/11 14:21:11;;;;;;;;;;;21.90;99.90;;;;;;5062035;28;19925;-92
2022/09/11 14:23:42;;;;;;;;;;;22.00;99.90;;;;;;5079013;28;19931;-93
2022/09/11 14:26:14;;;;;;;;;;;21.90;99.90;;;;;;5046317;28;19931;-93
2022/09/11 14:28:52;;;;;;;;;;;22.10;99.90;;;;;;5080296;28;19924;-91
2022/09/11 14:31:37;;;;;;;;;;;21.90;99.90;;;;;;5095489;28;19923;-92
2022/09/11 14:34:19;;;;;;;;;;;21.80;99.90;;;;;;5095657;28;19923;-92
2022/09/11 14:36:45;;;;;;;;;;;21.80;99.90;;;;;;5078917;28;19913;-92
2022/09/11 14:39:14;;;;;;;;;;;21.70;99.90;;;;;;5092654;28;19924;-92
2022/09/11 14:41:41;;;;;;;;;;;21.80;99.90;;;;;;5063226;28;19925;-91